sensor_id;sensor_type;location;lat;lon;timestamp;P1;durP1;ratioP1;P2;durP2;ratioP2
3085;SDS011;52812;48.960;9.108;2022-12-10T00:01:41;37.77;;;21.10;;
3085;SDS011;52812;48.960;9.108;2022-12-10T00:04:08;38.90;;;21.37;;
3085;SDS011;52812;48.960;9.108;2022-12-10T00:06:34;37.00;;;20.77;;
3085;SDS011;52812;48.960;9.108;2022-12-10T00:09:02;37.27;;;20.90;;
3085;SDS011;52812;48.960;9.108;2022-12-10T00:11:29;34.57;;;19.70;;
3085;SDS011;52812;48.960;9.108;2022-12-10T00:13:55;36.43;;;20.83;;
3085;SDS011;52812;48.960;9.108;2022-12-10T00:16:21;37.07;;;20.77;;
3085;SDS011;52812;48.960;9.108;2022-12-10T00:18:49;35.60;;;21.53;;
3085;SDS011;52812;48.960;9.108;2022-12-10T00:21:16;35.83;;;20.67;;
3085;SDS011;52812;48.960;9.108;2022-12-10T00:23:46;34.60;;;20.80;;
3085;SDS011;52812;48.960;9.108;2022-12-10T00:26:14;36.30;;;20.50;;
3085;SDS011;52812;48.960;9.108;2022-12-10T00:28:42;35.47;;;20.40;;
3085;SDS011;52812;48.960;9.108;2022-12-10T00:31:10;34.83;;;20.10;;
3085;SDS011;52812;48.960;9.108;2022-12-10T00:33:37;35.10;;;20.17;;
3085;SDS011;52812;48.960;9.108;2022-12-10T00:36:04;35.70;;;20.77;;
3085;SDS011;52812;48.960;9.108;2022-12-10T00:38:35;36.80;;;20.87;;
3085;SDS011;52812;48.960;9.108;2022-12-10T00:41:01;34.70;;;20.57;;
3085;SDS011;52812;48.960;9.108;2022-12-10T00:43:27;38.33;;;21.57;;
3085;SDS011;52812;48.960;9.108;2022-12-10T00:45:53;35.70;;;20.70;;
3085;SDS011;52812;48.960;9.108;2022-12-10T00:48:20;34.07;;;19.77;;
3085;SDS011;52812;48.960;9.108;2022-12-10T00:53:20;37.87;;;20.40;;
3085;SDS011;52812;48.960;9.108;2022-12-10T00:55:46;37.00;;;21.20;;
3085;SDS011;52812;48.960;9.108;2022-12-10T00:58:11;34.47;;;20.50;;
3085;SDS011;52812;48.960;9.108;2022-12-10T01:00:37;33.37;;;19.00;;
3085;SDS011;52812;48.960;9.108;2022-12-10T01:03:03;35.70;;;20.80;;
3085;SDS011;52812;48.960;9.108;2022-12-10T01:05:28;35.00;;;20.20;;
3085;SDS011;52812;48.960;9.108;2022-12-10T01:07:54;41.20;;;21.10;;
3085;SDS011;52812;48.960;9.108;2022-12-10T01:10:19;34.70;;;20.00;;
3085;SDS011;52812;48.960;9.108;2022-12-10T01:12:45;38.57;;;20.70;;
3085;SDS011;52812;48.960;9.108;2022-12-10T01:15:11;38.53;;;21.67;;
3085;SDS011;52812;48.960;9.108;2022-12-10T01:17:36;36.20;;;21.40;;
3085;SDS011;52812;48.960;9.108;2022-12-10T01:20:02;40.20;;;21.70;;
3085;SDS011;52812;48.960;9.108;2022-12-10T01:22:28;37.53;;;20.00;;
3085;SDS011;52812;48.960;9.108;2022-12-10T01:24:53;36.73;;;20.60;;
3085;SDS011;52812;48.960;9.108;2022-12-10T01:27:19;43.80;;;21.50;;
3085;SDS011;52812;48.960;9.108;2022-12-10T01:29:45;38.00;;;20.90;;
3085;SDS011;52812;48.960;9.108;2022-12-10T01:32:10;36.43;;;19.13;;
3085;SDS011;52812;48.960;9.108;2022-12-10T01:34:36;44.20;;;22.77;;
3085;SDS011;52812;48.960;9.108;2022-12-10T01:37:01;36.60;;;20.10;;
3085;SDS011;52812;48.960;9.108;2022-12-10T01:39:27;37.20;;;20.40;;
3085;SDS011;52812;48.960;9.108;2022-12-10T01:41:57;33.43;;;19.37;;
3085;SDS011;52812;48.960;9.108;2022-12-10T01:46:50;36.70;;;20.53;;
3085;SDS011;52812;48.960;9.108;2022-12-10T01:49:21;39.43;;;21.20;;
3085;SDS011;52812;48.960;9.108;2022-12-10T01:51:52;37.40;;;21.03;;
3085;SDS011;52812;48.960;9.108;2022-12-10T01:54:21;35.53;;;20.40;;
3085;SDS011;52812;48.960;9.108;2022-12-10T01:56:48;38.53;;;20.30;;
3085;SDS011;52812;48.960;9.108;2022-12-10T01:59:19;35.67;;;21.63;;
3085;SDS011;52812;48.960;9.108;2022-12-10T02:01:52;34.50;;;19.87;;
3085;SDS011;52812;48.960;9.108;2022-12-10T02:04:46;43.50;;;21.73;;
3085;SDS011;52812;48.960;9.108;2022-12-10T02:13:22;38.93;;;20.77;;
3085;SDS011;52812;48.960;9.108;2022-12-10T02:16:02;36.83;;;20.07;;
3085;SDS011;52812;48.960;9.108;2022-12-10T02:18:46;33.50;;;19.47;;
3085;SDS011;52812;48.960;9.108;2022-12-10T02:21:28;38.10;;;21.00;;
3085;SDS011;52812;48.960;9.108;2022-12-10T02:23:59;36.23;;;21.07;;
3085;SDS011;52812;48.960;9.108;2022-12-10T02:26:34;35.10;;;20.70;;
3085;SDS011;52812;48.960;9.108;2022-12-10T02:29:13;41.33;;;21.20;;
3085;SDS011;52812;48.960;9.108;2022-12-10T02:34:28;35.00;;;20.57;;
3085;SDS011;52812;48.960;9.108;2022-12-10T02:36:59;35.83;;;19.77;;
3085;SDS011;52812;48.960;9.108;2022-12-10T02:39:31;35.87;;;20.20;;
3085;SDS011;52812;48.960;9.108;2022-12-10T02:42:03;39.77;;;19.90;;
3085;SDS011;52812;48.960;9.108;2022-12-10T02:44:31;44.20;;;22.27;;
3085;SDS011;52812;48.960;9.108;2022-12-10T02:46:59;36.67;;;20.77;;
3085;SDS011;52812;48.960;9.108;2022-12-10T02:49:27;35.97;;;20.63;;
3085;SDS011;52812;48.960;9.108;2022-12-10T02:51:54;39.07;;;22.10;;
3085;SDS011;52812;48.960;9.108;2022-12-10T03:05:27;34.30;;;21.23;;
3085;SDS011;52812;48.960;9.108;2022-12-10T03:08:13;37.97;;;21.03;;
3085;SDS011;52812;48.960;9.108;2022-12-10T03:13:09;39.43;;;20.70;;
3085;SDS011;52812;48.960;9.108;2022-12-10T03:15:40;36.87;;;21.10;;
3085;SDS011;52812;48.960;9.108;2022-12-10T03:18:07;42.50;;;21.50;;
3085;SDS011;52812;48.960;9.108;2022-12-10T03:20:38;37.30;;;20.63;;
3085;SDS011;52812;48.960;9.108;2022-12-10T03:23:08;39.87;;;20.33;;
3085;SDS011;52812;48.960;9.108;2022-12-10T03:25:37;41.70;;;20.80;;
3085;SDS011;52812;48.960;9.108;2022-12-10T03:28:03;41.70;;;21.90;;
3085;SDS011;52812;48.960;9.108;2022-12-10T03:30:30;43.23;;;22.30;;
3085;SDS011;52812;48.960;9.108;2022-12-10T03:32:58;40.50;;;22.00;;
3085;SDS011;52812;48.960;9.108;2022-12-10T03:35:24;36.33;;;20.40;;
3085;SDS011;52812;48.960;9.108;2022-12-10T03:37:50;36.83;;;20.50;;
3085;SDS011;52812;48.960;9.108;2022-12-10T03:40:18;42.63;;;22.13;;
3085;SDS011;52812;48.960;9.108;2022-12-10T03:42:47;42.13;;;22.10;;
3085;SDS011;52812;48.960;9.108;2022-12-10T03:45:13;36.43;;;20.10;;
3085;SDS011;52812;48.960;9.108;2022-12-10T03:47:40;37.60;;;20.43;;
3085;SDS011;52812;48.960;9.108;2022-12-10T03:50:06;42.97;;;21.03;;
3085;SDS011;52812;48.960;9.108;2022-12-10T03:52:32;40.63;;;20.90;;
3085;SDS011;52812;48.960;9.108;2022-12-10T03:54:58;35.97;;;20.23;;
3085;SDS011;52812;48.960;9.108;2022-12-10T03:57:23;36.60;;;20.90;;
3085;SDS011;52812;48.960;9.108;2022-12-10T04:02:20;37.83;;;21.57;;
3085;SDS011;52812;48.960;9.108;2022-12-10T04:04:45;39.10;;;21.20;;
3085;SDS011;52812;48.960;9.108;2022-12-10T04:07:11;37.07;;;20.97;;
3085;SDS011;52812;48.960;9.108;2022-12-10T04:09:36;39.00;;;21.10;;
3085;SDS011;52812;48.960;9.108;2022-12-10T04:12:05;34.70;;;20.37;;
3085;SDS011;52812;48.960;9.108;2022-12-10T04:14:30;43.13;;;21.97;;
3085;SDS011;52812;48.960;9.108;2022-12-10T04:17:34;38.47;;;22.77;;
3085;SDS011;52812;48.960;9.108;2022-12-10T04:20:00;40.33;;;20.97;;
3085;SDS011;52812;48.960;9.108;2022-12-10T04:22:25;34.27;;;20.50;;
3085;SDS011;52812;48.960;9.108;2022-12-10T04:25:13;35.30;;;20.63;;
3085;SDS011;52812;48.960;9.108;2022-12-10T04:27:57;37.43;;;19.93;;
3085;SDS011;52812;48.960;9.108;2022-12-10T04:30:22;34.00;;;19.10;;
3085;SDS011;52812;48.960;9.108;2022-12-10T04:32:48;36.93;;;20.67;;
3085;SDS011;52812;48.960;9.108;2022-12-10T04:35:13;37.30;;;20.70;;
3085;SDS011;52812;48.960;9.108;2022-12-10T04:37:39;37.93;;;20.00;;
3085;SDS011;52812;48.960;9.108;2022-12-10T04:40:05;38.10;;;20.63;;
3085;SDS011;52812;48.960;9.108;2022-12-10T04:42:31;34.97;;;19.27;;
3085;SDS011;52812;48.960;9.108;2022-12-10T04:44:57;37.33;;;20.47;;
3085;SDS011;52812;48.960;9.108;2022-12-10T04:47:23;36.47;;;20.90;;
3085;SDS011;52812;48.960;9.108;2022-12-10T04:49:48;34.83;;;19.57;;
3085;SDS011;52812;48.960;9.108;2022-12-10T04:52:14;38.47;;;20.67;;
3085;SDS011;52812;48.960;9.108;2022-12-10T04:54:41;37.57;;;20.70;;
3085;SDS011;52812;48.960;9.108;2022-12-10T04:57:07;38.33;;;21.37;;
3085;SDS011;52812;48.960;9.108;2022-12-10T04:59:34;40.23;;;20.70;;
3085;SDS011;52812;48.960;9.108;2022-12-10T05:02:01;33.43;;;19.87;;
3085;SDS011;52812;48.960;9.108;2022-12-10T05:04:26;33.50;;;18.90;;
3085;SDS011;52812;48.960;9.108;2022-12-10T05:06:52;35.93;;;20.20;;
3085;SDS011;52812;48.960;9.108;2022-12-10T05:09:17;37.63;;;20.23;;
3085;SDS011;52812;48.960;9.108;2022-12-10T05:11:43;36.97;;;20.53;;
3085;SDS011;52812;48.960;9.108;2022-12-10T05:14:12;38.53;;;21.30;;
3085;SDS011;52812;48.960;9.108;2022-12-10T05:16:39;37.60;;;19.83;;
3085;SDS011;52812;48.960;9.108;2022-12-10T05:19:05;34.90;;;19.27;;
3085;SDS011;52812;48.960;9.108;2022-12-10T05:21:31;38.00;;;20.03;;
3085;SDS011;52812;48.960;9.108;2022-12-10T05:24:15;33.07;;;19.40;;
3085;SDS011;52812;48.960;9.108;2022-12-10T05:26:43;35.60;;;20.43;;
3085;SDS011;52812;48.960;9.108;2022-12-10T05:29:09;37.43;;;19.23;;
3085;SDS011;52812;48.960;9.108;2022-12-10T05:31:36;36.47;;;19.40;;
3085;SDS011;52812;48.960;9.108;2022-12-10T05:34:02;41.40;;;21.83;;
3085;SDS011;52812;48.960;9.108;2022-12-10T05:36:29;35.90;;;20.70;;
3085;SDS011;52812;48.960;9.108;2022-12-10T05:38:56;37.27;;;20.50;;
3085;SDS011;52812;48.960;9.108;2022-12-10T05:41:23;35.57;;;19.57;;
3085;SDS011;52812;48.960;9.108;2022-12-10T05:43:55;36.90;;;19.10;;
3085;SDS011;52812;48.960;9.108;2022-12-10T05:46:27;34.57;;;19.43;;
3085;SDS011;52812;48.960;9.108;2022-12-10T05:48:55;35.80;;;20.83;;
3085;SDS011;52812;48.960;9.108;2022-12-10T05:51:23;38.47;;;21.07;;
3085;SDS011;52812;48.960;9.108;2022-12-10T05:53:51;36.60;;;21.00;;
3085;SDS011;52812;48.960;9.108;2022-12-10T05:56:17;41.60;;;20.37;;
3085;SDS011;52812;48.960;9.108;2022-12-10T05:58:45;37.97;;;19.90;;
3085;SDS011;52812;48.960;9.108;2022-12-10T06:01:13;38.90;;;21.17;;
3085;SDS011;52812;48.960;9.108;2022-12-10T06:03:41;37.70;;;19.63;;
3085;SDS011;52812;48.960;9.108;2022-12-10T06:06:07;36.77;;;20.17;;
3085;SDS011;52812;48.960;9.108;2022-12-10T06:08:33;37.37;;;19.83;;
3085;SDS011;52812;48.960;9.108;2022-12-10T06:11:03;37.67;;;19.97;;
3085;SDS011;52812;48.960;9.108;2022-12-10T06:13:29;37.20;;;19.90;;
3085;SDS011;52812;48.960;9.108;2022-12-10T06:15:55;35.33;;;20.30;;
3085;SDS011;52812;48.960;9.108;2022-12-10T06:18:20;38.00;;;19.90;;
3085;SDS011;52812;48.960;9.108;2022-12-10T06:20:46;36.17;;;20.60;;
3085;SDS011;52812;48.960;9.108;2022-12-10T06:23:12;37.83;;;19.97;;
3085;SDS011;52812;48.960;9.108;2022-12-10T06:25:38;38.60;;;19.63;;
3085;SDS011;52812;48.960;9.108;2022-12-10T06:28:04;35.83;;;19.23;;
3085;SDS011;52812;48.960;9.108;2022-12-10T06:30:30;36.07;;;20.13;;
3085;SDS011;52812;48.960;9.108;2022-12-10T06:32:56;37.33;;;20.20;;
3085;SDS011;52812;48.960;9.108;2022-12-10T06:35:21;34.77;;;20.50;;
3085;SDS011;52812;48.960;9.108;2022-12-10T06:37:48;37.63;;;20.13;;
3085;SDS011;52812;48.960;9.108;2022-12-10T06:40:14;41.17;;;20.83;;
3085;SDS011;52812;48.960;9.108;2022-12-10T06:42:40;35.70;;;20.27;;
3085;SDS011;52812;48.960;9.108;2022-12-10T06:45:06;35.67;;;19.17;;
3085;SDS011;52812;48.960;9.108;2022-12-10T06:47:32;38.47;;;20.23;;
3085;SDS011;52812;48.960;9.108;2022-12-10T06:49:58;38.27;;;21.20;;
3085;SDS011;52812;48.960;9.108;2022-12-10T06:52:23;34.07;;;19.20;;
3085;SDS011;52812;48.960;9.108;2022-12-10T06:54:49;41.23;;;21.97;;
3085;SDS011;52812;48.960;9.108;2022-12-10T06:57:15;35.53;;;20.10;;
3085;SDS011;52812;48.960;9.108;2022-12-10T06:59:40;38.17;;;21.30;;
3085;SDS011;52812;48.960;9.108;2022-12-10T07:02:07;37.40;;;19.60;;
3085;SDS011;52812;48.960;9.108;2022-12-10T07:04:34;37.57;;;20.33;;
3085;SDS011;52812;48.960;9.108;2022-12-10T07:07:00;40.90;;;20.57;;
3085;SDS011;52812;48.960;9.108;2022-12-10T07:09:25;39.37;;;20.50;;
3085;SDS011;52812;48.960;9.108;2022-12-10T07:11:51;42.63;;;22.03;;
3085;SDS011;52812;48.960;9.108;2022-12-10T07:14:16;37.13;;;20.10;;
3085;SDS011;52812;48.960;9.108;2022-12-10T07:16:44;36.00;;;20.83;;
3085;SDS011;52812;48.960;9.108;2022-12-10T07:19:10;41.20;;;22.60;;
3085;SDS011;52812;48.960;9.108;2022-12-10T07:21:37;42.77;;;22.23;;
3085;SDS011;52812;48.960;9.108;2022-12-10T07:24:15;45.43;;;23.50;;
3085;SDS011;52812;48.960;9.108;2022-12-10T07:26:42;38.93;;;22.53;;
3085;SDS011;52812;48.960;9.108;2022-12-10T07:29:09;41.40;;;21.40;;
3085;SDS011;52812;48.960;9.108;2022-12-10T07:31:46;37.67;;;21.90;;
3085;SDS011;52812;48.960;9.108;2022-12-10T07:34:13;39.67;;;20.60;;
3085;SDS011;52812;48.960;9.108;2022-12-10T07:36:39;34.53;;;20.10;;
3085;SDS011;52812;48.960;9.108;2022-12-10T07:39:05;39.63;;;20.10;;
3085;SDS011;52812;48.960;9.108;2022-12-10T07:41:32;41.33;;;21.77;;
3085;SDS011;52812;48.960;9.108;2022-12-10T07:43:58;36.27;;;20.30;;
3085;SDS011;52812;48.960;9.108;2022-12-10T07:46:25;37.17;;;20.17;;
3085;SDS011;52812;48.960;9.108;2022-12-10T07:48:52;43.50;;;22.43;;
3085;SDS011;52812;48.960;9.108;2022-12-10T07:51:19;40.13;;;21.70;;
3085;SDS011;52812;48.960;9.108;2022-12-10T07:53:45;39.40;;;21.43;;
3085;SDS011;52812;48.960;9.108;2022-12-10T07:56:11;38.20;;;20.10;;
3085;SDS011;52812;48.960;9.108;2022-12-10T07:58:40;37.50;;;20.93;;
3085;SDS011;52812;48.960;9.108;2022-12-10T08:01:12;38.40;;;20.37;;
3085;SDS011;52812;48.960;9.108;2022-12-10T08:03:39;39.73;;;20.83;;
3085;SDS011;52812;48.960;9.108;2022-12-10T08:06:10;39.27;;;20.70;;
3085;SDS011;52812;48.960;9.108;2022-12-10T08:08:37;36.60;;;20.17;;
3085;SDS011;52812;48.960;9.108;2022-12-10T08:11:03;37.70;;;20.37;;
3085;SDS011;52812;48.960;9.108;2022-12-10T08:13:30;41.07;;;20.60;;
3085;SDS011;52812;48.960;9.108;2022-12-10T08:16:06;32.60;;;19.30;;
3085;SDS011;52812;48.960;9.108;2022-12-10T08:18:37;40.37;;;20.23;;
3085;SDS011;52812;48.960;9.108;2022-12-10T08:21:07;36.20;;;19.60;;
3085;SDS011;52812;48.960;9.108;2022-12-10T08:23:34;34.53;;;20.27;;
3085;SDS011;52812;48.960;9.108;2022-12-10T08:26:08;38.73;;;20.73;;
3085;SDS011;52812;48.960;9.108;2022-12-10T08:28:38;36.67;;;19.07;;
3085;SDS011;52812;48.960;9.108;2022-12-10T08:31:04;37.43;;;20.43;;
3085;SDS011;52812;48.960;9.108;2022-12-10T08:33:32;37.10;;;20.03;;
3085;SDS011;52812;48.960;9.108;2022-12-10T08:35:59;41.03;;;20.23;;
3085;SDS011;52812;48.960;9.108;2022-12-10T08:38:25;34.97;;;20.23;;
3085;SDS011;52812;48.960;9.108;2022-12-10T08:40:52;40.70;;;19.80;;
3085;SDS011;52812;48.960;9.108;2022-12-10T08:43:17;33.57;;;19.47;;
3085;SDS011;52812;48.960;9.108;2022-12-10T08:45:43;37.40;;;19.77;;
3085;SDS011;52812;48.960;9.108;2022-12-10T08:48:09;37.63;;;20.50;;
3085;SDS011;52812;48.960;9.108;2022-12-10T08:50:35;39.03;;;20.77;;
3085;SDS011;52812;48.960;9.108;2022-12-10T08:53:02;37.70;;;19.13;;
3085;SDS011;52812;48.960;9.108;2022-12-10T08:55:27;41.40;;;20.93;;
3085;SDS011;52812;48.960;9.108;2022-12-10T08:57:53;37.00;;;21.03;;
3085;SDS011;52812;48.960;9.108;2022-12-10T09:00:19;36.57;;;20.50;;
3085;SDS011;52812;48.960;9.108;2022-12-10T09:02:45;35.50;;;19.90;;
3085;SDS011;52812;48.960;9.108;2022-12-10T09:05:10;34.37;;;19.23;;
3085;SDS011;52812;48.960;9.108;2022-12-10T09:07:36;34.43;;;19.20;;
3085;SDS011;52812;48.960;9.108;2022-12-10T09:10:02;37.70;;;19.90;;
3085;SDS011;52812;48.960;9.108;2022-12-10T09:12:27;36.13;;;20.13;;
3085;SDS011;52812;48.960;9.108;2022-12-10T09:14:53;34.10;;;19.40;;
3085;SDS011;52812;48.960;9.108;2022-12-10T09:17:19;35.97;;;18.80;;
3085;SDS011;52812;48.960;9.108;2022-12-10T09:19:45;35.43;;;19.23;;
3085;SDS011;52812;48.960;9.108;2022-12-10T09:22:10;35.10;;;18.70;;
3085;SDS011;52812;48.960;9.108;2022-12-10T09:24:36;32.33;;;19.30;;
3085;SDS011;52812;48.960;9.108;2022-12-10T09:27:01;35.00;;;19.80;;
3085;SDS011;52812;48.960;9.108;2022-12-10T09:29:27;36.50;;;19.70;;
3085;SDS011;52812;48.960;9.108;2022-12-10T09:31:53;30.67;;;17.93;;
3085;SDS011;52812;48.960;9.108;2022-12-10T09:34:19;38.07;;;19.80;;
3085;SDS011;52812;48.960;9.108;2022-12-10T09:36:46;37.00;;;19.70;;
3085;SDS011;52812;48.960;9.108;2022-12-10T09:39:11;34.30;;;19.80;;
3085;SDS011;52812;48.960;9.108;2022-12-10T09:46:55;31.27;;;18.50;;
3085;SDS011;52812;48.960;9.108;2022-12-10T09:52:15;31.10;;;17.80;;
3085;SDS011;52812;48.960;9.108;2022-12-10T09:54:45;33.43;;;18.80;;
3085;SDS011;52812;48.960;9.108;2022-12-10T09:57:32;32.97;;;18.63;;
3085;SDS011;52812;48.960;9.108;2022-12-10T10:02:55;31.10;;;17.23;;
3085;SDS011;52812;48.960;9.108;2022-12-10T10:05:28;29.50;;;17.20;;
3085;SDS011;52812;48.960;9.108;2022-12-10T10:08:00;34.77;;;18.73;;
3085;SDS011;52812;48.960;9.108;2022-12-10T10:10:35;36.87;;;18.50;;
3085;SDS011;52812;48.960;9.108;2022-12-10T10:15:33;34.57;;;17.90;;
3085;SDS011;52812;48.960;9.108;2022-12-10T10:18:15;28.63;;;16.77;;
3085;SDS011;52812;48.960;9.108;2022-12-10T10:20:42;32.17;;;17.10;;
3085;SDS011;52812;48.960;9.108;2022-12-10T10:23:08;30.27;;;16.97;;
3085;SDS011;52812;48.960;9.108;2022-12-10T10:25:38;29.20;;;15.93;;
3085;SDS011;52812;48.960;9.108;2022-12-10T10:28:04;28.30;;;15.90;;
3085;SDS011;52812;48.960;9.108;2022-12-10T10:30:30;29.67;;;16.97;;
3085;SDS011;52812;48.960;9.108;2022-12-10T10:32:56;32.00;;;16.93;;
3085;SDS011;52812;48.960;9.108;2022-12-10T10:35:27;29.87;;;17.60;;
3085;SDS011;52812;48.960;9.108;2022-12-10T10:38:13;29.90;;;16.07;;
3085;SDS011;52812;48.960;9.108;2022-12-10T10:40:44;29.30;;;17.13;;
3085;SDS011;52812;48.960;9.108;2022-12-10T10:43:15;29.80;;;16.90;;
3085;SDS011;52812;48.960;9.108;2022-12-10T10:46:10;27.90;;;16.80;;
3085;SDS011;52812;48.960;9.108;2022-12-10T10:48:41;29.40;;;16.43;;
3085;SDS011;52812;48.960;9.108;2022-12-10T10:53:40;27.50;;;17.73;;
3085;SDS011;52812;48.960;9.108;2022-12-10T10:56:21;29.73;;;16.57;;
3085;SDS011;52812;48.960;9.108;2022-12-10T10:59:04;29.93;;;17.30;;
3085;SDS011;52812;48.960;9.108;2022-12-10T11:01:51;31.47;;;16.83;;
3085;SDS011;52812;48.960;9.108;2022-12-10T11:05:05;29.30;;;17.67;;
3085;SDS011;52812;48.960;9.108;2022-12-10T11:07:21;28.03;;;17.13;;
3085;SDS011;52812;48.960;9.108;2022-12-10T11:09:56;32.97;;;17.83;;
3085;SDS011;52812;48.960;9.108;2022-12-10T11:12:36;29.80;;;17.07;;
3085;SDS011;52812;48.960;9.108;2022-12-10T11:15:29;32.43;;;18.90;;
3085;SDS011;52812;48.960;9.108;2022-12-10T11:17:59;29.63;;;17.90;;
3085;SDS011;52812;48.960;9.108;2022-12-10T11:20:27;30.67;;;17.90;;
3085;SDS011;52812;48.960;9.108;2022-12-10T11:23:00;32.67;;;18.10;;
3085;SDS011;52812;48.960;9.108;2022-12-10T11:28:12;29.17;;;17.83;;
3085;SDS011;52812;48.960;9.108;2022-12-10T11:31:04;31.33;;;18.90;;
3085;SDS011;52812;48.960;9.108;2022-12-10T11:33:47;33.00;;;17.73;;
3085;SDS011;52812;48.960;9.108;2022-12-10T11:41:41;26.90;;;15.00;;
3085;SDS011;52812;48.960;9.108;2022-12-10T11:44:14;24.50;;;15.13;;
3085;SDS011;52812;48.960;9.108;2022-12-10T11:49:46;29.07;;;16.00;;
3085;SDS011;52812;48.960;9.108;2022-12-10T12:06:34;25.57;;;14.80;;
3085;SDS011;52812;48.960;9.108;2022-12-10T12:09:25;24.37;;;14.87;;
3085;SDS011;52812;48.960;9.108;2022-12-10T12:14:51;31.23;;;16.60;;
3085;SDS011;52812;48.960;9.108;2022-12-10T12:17:32;26.80;;;15.60;;
3085;SDS011;52812;48.960;9.108;2022-12-10T12:20:14;26.73;;;16.03;;
3085;SDS011;52812;48.960;9.108;2022-12-10T12:22:47;26.77;;;15.10;;
3085;SDS011;52812;48.960;9.108;2022-12-10T12:25:22;27.20;;;17.00;;
3085;SDS011;52812;48.960;9.108;2022-12-10T12:31:01;22.27;;;13.67;;
3085;SDS011;52812;48.960;9.108;2022-12-10T12:33:45;25.33;;;15.43;;
3085;SDS011;52812;48.960;9.108;2022-12-10T12:36:17;24.13;;;14.63;;
3085;SDS011;52812;48.960;9.108;2022-12-10T12:38:52;25.57;;;15.07;;
3085;SDS011;52812;48.960;9.108;2022-12-10T12:44:28;31.27;;;15.70;;
3085;SDS011;52812;48.960;9.108;2022-12-10T12:47:50;27.23;;;15.50;;
3085;SDS011;52812;48.960;9.108;2022-12-10T12:50:04;25.50;;;15.53;;
3085;SDS011;52812;48.960;9.108;2022-12-10T12:52:40;27.13;;;15.33;;
3085;SDS011;52812;48.960;9.108;2022-12-10T12:55:17;27.03;;;15.07;;
3085;SDS011;52812;48.960;9.108;2022-12-10T12:57:56;27.23;;;15.57;;
3085;SDS011;52812;48.960;9.108;2022-12-10T13:00:38;26.90;;;15.40;;
3085;SDS011;52812;48.960;9.108;2022-12-10T13:05:46;22.83;;;14.87;;
3085;SDS011;52812;48.960;9.108;2022-12-10T13:11:00;25.90;;;15.63;;
3085;SDS011;52812;48.960;9.108;2022-12-10T13:13:36;28.40;;;16.07;;
3085;SDS011;52812;48.960;9.108;2022-12-10T13:16:33;26.70;;;16.67;;
3085;SDS011;52812;48.960;9.108;2022-12-10T13:24:20;25.27;;;15.00;;
3085;SDS011;52812;48.960;9.108;2022-12-10T13:27:23;28.73;;;16.37;;
3085;SDS011;52812;48.960;9.108;2022-12-10T13:30:43;27.50;;;15.70;;
3085;SDS011;52812;48.960;9.108;2022-12-10T13:33:00;25.60;;;16.00;;
3085;SDS011;52812;48.960;9.108;2022-12-10T13:35:41;26.60;;;15.60;;
3085;SDS011;52812;48.960;9.108;2022-12-10T13:38:18;28.37;;;15.90;;
3085;SDS011;52812;48.960;9.108;2022-12-10T13:40:56;28.60;;;16.70;;
3085;SDS011;52812;48.960;9.108;2022-12-10T13:43:42;35.83;;;18.90;;
3085;SDS011;52812;48.960;9.108;2022-12-10T13:46:57;44.10;;;22.23;;
3085;SDS011;52812;48.960;9.108;2022-12-10T13:49:30;49.93;;;24.97;;
3085;SDS011;52812;48.960;9.108;2022-12-10T13:54:46;36.33;;;18.93;;
3085;SDS011;52812;48.960;9.108;2022-12-10T13:57:36;32.90;;;17.83;;
3085;SDS011;52812;48.960;9.108;2022-12-10T14:03:48;33.90;;;18.93;;
3085;SDS011;52812;48.960;9.108;2022-12-10T14:06:20;32.87;;;17.70;;
3085;SDS011;52812;48.960;9.108;2022-12-10T14:08:58;32.77;;;18.50;;
3085;SDS011;52812;48.960;9.108;2022-12-10T14:11:37;35.87;;;18.67;;
3085;SDS011;52812;48.960;9.108;2022-12-10T14:14:06;31.23;;;18.67;;
3085;SDS011;52812;48.960;9.108;2022-12-10T14:16:38;31.00;;;19.03;;
3085;SDS011;52812;48.960;9.108;2022-12-10T14:19:06;34.40;;;19.40;;
3085;SDS011;52812;48.960;9.108;2022-12-10T14:21:37;33.00;;;18.80;;
3085;SDS011;52812;48.960;9.108;2022-12-10T14:24:04;36.93;;;20.17;;
3085;SDS011;52812;48.960;9.108;2022-12-10T14:26:32;38.27;;;19.90;;
3085;SDS011;52812;48.960;9.108;2022-12-10T14:31:33;38.67;;;19.13;;
3085;SDS011;52812;48.960;9.108;2022-12-10T14:34:04;34.80;;;17.33;;
3085;SDS011;52812;48.960;9.108;2022-12-10T14:36:38;29.10;;;14.80;;
3085;SDS011;52812;48.960;9.108;2022-12-10T14:39:12;23.30;;;14.27;;
3085;SDS011;52812;48.960;9.108;2022-12-10T14:41:40;26.50;;;14.50;;
3085;SDS011;52812;48.960;9.108;2022-12-10T14:44:06;26.20;;;14.23;;
3085;SDS011;52812;48.960;9.108;2022-12-10T14:46:40;26.17;;;14.50;;
3085;SDS011;52812;48.960;9.108;2022-12-10T14:49:08;24.97;;;14.00;;
3085;SDS011;52812;48.960;9.108;2022-12-10T14:51:50;30.20;;;15.87;;
3085;SDS011;52812;48.960;9.108;2022-12-10T14:54:30;24.37;;;15.30;;
3085;SDS011;52812;48.960;9.108;2022-12-10T14:57:00;23.93;;;14.33;;
3085;SDS011;52812;48.960;9.108;2022-12-10T14:59:32;27.70;;;14.87;;
3085;SDS011;52812;48.960;9.108;2022-12-10T15:05:03;30.73;;;17.77;;
3085;SDS011;52812;48.960;9.108;2022-12-10T15:07:42;31.83;;;18.13;;
3085;SDS011;52812;48.960;9.108;2022-12-10T15:10:14;34.13;;;20.10;;
3085;SDS011;52812;48.960;9.108;2022-12-10T15:12:46;38.50;;;19.00;;
3085;SDS011;52812;48.960;9.108;2022-12-10T15:23:30;40.80;;;20.97;;
3085;SDS011;52812;48.960;9.108;2022-12-10T15:28:30;43.23;;;25.00;;
3085;SDS011;52812;48.960;9.108;2022-12-10T15:31:20;43.07;;;23.73;;
3085;SDS011;52812;48.960;9.108;2022-12-10T15:33:56;47.30;;;25.33;;
3085;SDS011;52812;48.960;9.108;2022-12-10T15:38:49;37.80;;;20.80;;
3085;SDS011;52812;48.960;9.108;2022-12-10T15:41:49;38.80;;;21.57;;
3085;SDS011;52812;48.960;9.108;2022-12-10T15:44:31;46.83;;;22.10;;
3085;SDS011;52812;48.960;9.108;2022-12-10T15:49:47;35.93;;;19.30;;
3085;SDS011;52812;48.960;9.108;2022-12-10T15:52:15;41.80;;;20.83;;
3085;SDS011;52812;48.960;9.108;2022-12-10T15:54:44;36.50;;;19.50;;
3085;SDS011;52812;48.960;9.108;2022-12-10T15:57:12;36.40;;;19.53;;
3085;SDS011;52812;48.960;9.108;2022-12-10T15:59:39;38.37;;;20.63;;
3085;SDS011;52812;48.960;9.108;2022-12-10T16:05:15;39.43;;;22.77;;
3085;SDS011;52812;48.960;9.108;2022-12-10T16:07:43;42.40;;;22.53;;
3085;SDS011;52812;48.960;9.108;2022-12-10T16:10:11;45.63;;;23.50;;
3085;SDS011;52812;48.960;9.108;2022-12-10T16:12:38;46.23;;;23.93;;
3085;SDS011;52812;48.960;9.108;2022-12-10T16:15:05;53.80;;;26.67;;
3085;SDS011;52812;48.960;9.108;2022-12-10T16:17:33;44.63;;;22.70;;
3085;SDS011;52812;48.960;9.108;2022-12-10T16:22:55;53.40;;;26.77;;
3085;SDS011;52812;48.960;9.108;2022-12-10T16:25:23;46.40;;;25.07;;
3085;SDS011;52812;48.960;9.108;2022-12-10T16:27:52;42.67;;;22.17;;
3085;SDS011;52812;48.960;9.108;2022-12-10T16:30:19;41.03;;;21.03;;
3085;SDS011;52812;48.960;9.108;2022-12-10T16:32:49;35.40;;;20.47;;
3085;SDS011;52812;48.960;9.108;2022-12-10T16:35:16;43.57;;;24.57;;
3085;SDS011;52812;48.960;9.108;2022-12-10T16:37:45;41.60;;;24.20;;
3085;SDS011;52812;48.960;9.108;2022-12-10T16:40:14;43.03;;;27.60;;
3085;SDS011;52812;48.960;9.108;2022-12-10T16:42:40;41.30;;;24.27;;
3085;SDS011;52812;48.960;9.108;2022-12-10T16:45:14;46.87;;;25.77;;
3085;SDS011;52812;48.960;9.108;2022-12-10T16:47:43;44.77;;;24.60;;
3085;SDS011;52812;48.960;9.108;2022-12-10T16:50:09;42.70;;;25.50;;
3085;SDS011;52812;48.960;9.108;2022-12-10T16:52:36;40.13;;;22.87;;
3085;SDS011;52812;48.960;9.108;2022-12-10T16:55:02;34.80;;;19.37;;
3085;SDS011;52812;48.960;9.108;2022-12-10T16:57:28;34.97;;;20.13;;